sensor_id;sensor_type;location;lat;lon;timestamp;pressure;altitude;pressure_sealevel;temperature;humidity
61128;BME280;47013;42.664;23.242;2023-04-02T00:02:33;93149.03;;;7.42;71.76
61128;BME280;47013;42.664;23.242;2023-04-02T00:07:47;93151.81;;;7.35;72.41
61128;BME280;47013;42.664;23.242;2023-04-02T00:10:33;93144.78;;;7.10;73.01
61128;BME280;47013;42.664;23.242;2023-04-02T00:13:00;93144.59;;;6.94;74.14
61128;BME280;47013;42.664;23.242;2023-04-02T00:15:25;93138.22;;;6.77;74.26
61128;BME280;47013;42.664;23.242;2023-04-02T00:17:51;93131.94;;;6.88;74.65
61128;BME280;47013;42.664;23.242;2023-04-02T00:20:17;93144.13;;;6.99;74.22
61128;BME280;47013;42.664;23.242;2023-04-02T00:22:44;93142.91;;;7.07;73.59
61128;BME280;47013;42.664;23.242;2023-04-02T00:25:11;93136.69;;;7.10;73.17
61128;BME280;47013;42.664;23.242;2023-04-02T00:27:37;93142.84;;;7.11;72.95
61128;BME280;47013;42.664;23.242;2023-04-02T00:30:03;93145.50;;;7.15;72.72
61128;BME280;47013;42.664;23.242;2023-04-02T00:32:32;93136.22;;;7.19;72.59
61128;BME280;47013;42.664;23.242;2023-04-02T00:34:58;93129.72;;;7.17;72.48
61128;BME280;47013;42.664;23.242;2023-04-02T00:37:24;93132.72;;;7.22;72.55
61128;BME280;47013;42.664;23.242;2023-04-02T00:39:59;93137.75;;;7.20;72.99
61128;BME280;47013;42.664;23.242;2023-04-02T00:42:25;93141.13;;;7.28;71.96
61128;BME280;47013;42.664;23.242;2023-04-02T00:44:55;93137.63;;;7.31;71.55
61128;BME280;47013;42.664;23.242;2023-04-02T00:47:31;93138.41;;;7.31;71.74
61128;BME280;47013;42.664;23.242;2023-04-02T00:49:58;93137.09;;;7.43;71.77
61128;BME280;47013;42.664;23.242;2023-04-02T00:52:29;93129.13;;;7.32;70.97
61128;BME280;47013;42.664;23.242;2023-04-02T00:55:12;93135.25;;;7.36;71.42
61128;BME280;47013;42.664;23.242;2023-04-02T00:57:42;93132.09;;;7.42;70.34
61128;BME280;47013;42.664;23.242;2023-04-02T01:00:19;93136.59;;;7.21;70.42
61128;BME280;47013;42.664;23.242;2023-04-02T01:05:33;93140.59;;;7.40;69.90
61128;BME280;47013;42.664;23.242;2023-04-02T01:08:04;93135.28;;;7.33;70.07
61128;BME280;47013;42.664;23.242;2023-04-02T01:15:32;93145.19;;;7.43;69.32
61128;BME280;47013;42.664;23.242;2023-04-02T01:30:33;93151.41;;;7.36;68.04
61128;BME280;47013;42.664;23.242;2023-04-02T01:32:58;93148.19;;;7.49;68.65
61128;BME280;47013;42.664;23.242;2023-04-02T01:35:24;93141.75;;;7.39;68.22
61128;BME280;47013;42.664;23.242;2023-04-02T01:41:08;93161.97;;;7.58;67.76
61128;BME280;47013;42.664;23.242;2023-04-02T01:43:46;93148.06;;;7.59;67.89
61128;BME280;47013;42.664;23.242;2023-04-02T01:48:51;93156.03;;;7.70;66.85
61128;BME280;47013;42.664;23.242;2023-04-02T01:51:24;93143.44;;;7.60;66.31
61128;BME280;47013;42.664;23.242;2023-04-02T01:53:50;93153.75;;;7.68;65.93
61128;BME280;47013;42.664;23.242;2023-04-02T01:56:15;93155.56;;;7.75;66.78
61128;BME280;47013;42.664;23.242;2023-04-02T01:58:41;93146.22;;;7.83;67.10
61128;BME280;47013;42.664;23.242;2023-04-02T02:01:09;93152.31;;;7.87;65.95
61128;BME280;47013;42.664;23.242;2023-04-02T02:03:38;93146.09;;;7.90;66.40
61128;BME280;47013;42.664;23.242;2023-04-02T02:06:05;93144.13;;;7.94;66.13
61128;BME280;47013;42.664;23.242;2023-04-02T02:08:50;93137.19;;;7.93;65.54
61128;BME280;47013;42.664;23.242;2023-04-02T02:11:18;93137.84;;;7.74;65.60
61128;BME280;47013;42.664;23.242;2023-04-02T02:13:49;93145.47;;;7.79;65.75
61128;BME280;47013;42.664;23.242;2023-04-02T02:16:16;93134.78;;;7.72;66.19
61128;BME280;47013;42.664;23.242;2023-04-02T02:18:45;93132.69;;;7.56;66.79
61128;BME280;47013;42.664;23.242;2023-04-02T02:21:12;93126.47;;;7.59;66.48
61128;BME280;47013;42.664;23.242;2023-04-02T02:23:45;93127.84;;;7.44;67.48
61128;BME280;47013;42.664;23.242;2023-04-02T02:26:10;93138.25;;;7.42;67.60
61128;BME280;47013;42.664;23.242;2023-04-02T02:28:38;93136.88;;;7.30;68.33
61128;BME280;47013;42.664;23.242;2023-04-02T02:31:06;93137.19;;;7.36;68.29
61128;BME280;47013;42.664;23.242;2023-04-02T02:33:48;93139.94;;;7.32;68.48
61128;BME280;47013;42.664;23.242;2023-04-02T02:36:18;93145.72;;;7.31;68.94
61128;BME280;47013;42.664;23.242;2023-04-02T02:41:23;93149.63;;;7.26;68.25
61128;BME280;47013;42.664;23.242;2023-04-02T02:44:23;93143.16;;;7.20;68.26
61128;BME280;47013;42.664;23.242;2023-04-02T02:46:59;93148.41;;;7.31;67.77
61128;BME280;47013;42.664;23.242;2023-04-02T02:49:32;93145.63;;;7.38;67.69
61128;BME280;47013;42.664;23.242;2023-04-02T02:52:11;93141.72;;;7.43;67.50
61128;BME280;47013;42.664;23.242;2023-04-02T02:54:38;93135.00;;;7.54;67.57
61128;BME280;47013;42.664;23.242;2023-04-02T02:57:05;93144.59;;;7.59;67.21
61128;BME280;47013;42.664;23.242;2023-04-02T02:59:31;93136.81;;;7.64;66.69
61128;BME280;47013;42.664;23.242;2023-04-02T03:01:58;93137.75;;;7.51;66.51
61128;BME280;47013;42.664;23.242;2023-04-02T03:04:24;93143.44;;;7.60;66.46
61128;BME280;47013;42.664;23.242;2023-04-02T03:06:54;93142.25;;;7.61;66.39
61128;BME280;47013;42.664;23.242;2023-04-02T03:14:25;93150.56;;;7.74;66.53
61128;BME280;47013;42.664;23.242;2023-04-02T03:16:59;93154.13;;;7.67;66.57
61128;BME280;47013;42.664;23.242;2023-04-02T03:26:56;93153.41;;;7.32;67.30
61128;BME280;47013;42.664;23.242;2023-04-02T03:29:26;93151.38;;;7.40;67.17
61128;BME280;47013;42.664;23.242;2023-04-02T03:31:59;93153.84;;;7.27;67.11
61128;BME280;47013;42.664;23.242;2023-04-02T03:34:27;93153.34;;;7.36;66.64
61128;BME280;47013;42.664;23.242;2023-04-02T03:36:58;93163.63;;;7.48;66.36
61128;BME280;47013;42.664;23.242;2023-04-02T03:39:34;93160.09;;;7.51;66.20
61128;BME280;47013;42.664;23.242;2023-04-02T03:42:06;93159.63;;;7.60;66.07
61128;BME280;47013;42.664;23.242;2023-04-02T03:44:34;93165.44;;;7.55;65.76
61128;BME280;47013;42.664;23.242;2023-04-02T03:48:03;93158.84;;;7.59;65.27
61128;BME280;47013;42.664;23.242;2023-04-02T03:52:28;93165.06;;;7.56;65.62
61128;BME280;47013;42.664;23.242;2023-04-02T03:54:54;93152.53;;;7.39;66.38
61128;BME280;47013;42.664;23.242;2023-04-02T03:59:57;93162.56;;;7.38;66.33
61128;BME280;47013;42.664;23.242;2023-04-02T04:02:41;93158.03;;;7.32;66.11
61128;BME280;47013;42.664;23.242;2023-04-02T04:05:17;93159.97;;;7.31;66.31
61128;BME280;47013;42.664;23.242;2023-04-02T04:07:43;93162.16;;;7.40;66.26
61128;BME280;47013;42.664;23.242;2023-04-02T04:10:13;93170.53;;;7.49;66.56
61128;BME280;47013;42.664;23.242;2023-04-02T04:12:47;93161.97;;;7.54;65.97
61128;BME280;47013;42.664;23.242;2023-04-02T04:18:07;93167.78;;;7.53;65.46
61128;BME280;47013;42.664;23.242;2023-04-02T04:20:40;93173.28;;;7.46;65.86
61128;BME280;47013;42.664;23.242;2023-04-02T04:23:14;93180.88;;;7.54;65.86
61128;BME280;47013;42.664;23.242;2023-04-02T04:25:41;93174.72;;;7.54;65.32
61128;BME280;47013;42.664;23.242;2023-04-02T04:28:09;93173.75;;;7.37;65.95
61128;BME280;47013;42.664;23.242;2023-04-02T04:33:10;93185.75;;;7.32;66.04
61128;BME280;47013;42.664;23.242;2023-04-02T04:35:43;93187.34;;;7.26;65.61
61128;BME280;47013;42.664;23.242;2023-04-02T04:38:15;93180.03;;;7.27;65.99
61128;BME280;47013;42.664;23.242;2023-04-02T04:40:49;93177.84;;;7.15;66.84
61128;BME280;47013;42.664;23.242;2023-04-02T04:43:19;93185.66;;;7.05;67.07
61128;BME280;47013;42.664;23.242;2023-04-02T04:45:50;93184.50;;;7.06;67.15
61128;BME280;47013;42.664;23.242;2023-04-02T04:51:18;93186.59;;;7.26;66.34
61128;BME280;47013;42.664;23.242;2023-04-02T04:53:49;93196.09;;;7.37;66.09
61128;BME280;47013;42.664;23.242;2023-04-02T04:56:19;93189.88;;;7.44;65.02
61128;BME280;47013;42.664;23.242;2023-04-02T04:58:49;93185.56;;;7.50;65.31
61128;BME280;47013;42.664;23.242;2023-04-02T05:09:29;93193.25;;;7.82;65.00
61128;BME280;47013;42.664;23.242;2023-04-02T05:14:42;93197.28;;;7.97;64.62
61128;BME280;47013;42.664;23.242;2023-04-02T05:17:18;93195.56;;;8.11;63.71
61128;BME280;47013;42.664;23.242;2023-04-02T05:19:56;93190.03;;;8.21;63.08
61128;BME280;47013;42.664;23.242;2023-04-02T05:22:33;93184.84;;;8.31;61.94
61128;BME280;47013;42.664;23.242;2023-04-02T05:27:38;93194.25;;;8.49;61.53
61128;BME280;47013;42.664;23.242;2023-04-02T05:30:08;93194.69;;;8.48;60.62
61128;BME280;47013;42.664;23.242;2023-04-02T05:32:36;93201.84;;;8.58;60.46
61128;BME280;47013;42.664;23.242;2023-04-02T05:35:05;93205.91;;;8.70;59.64
61128;BME280;47013;42.664;23.242;2023-04-02T05:37:30;93208.38;;;8.84;59.65
61128;BME280;47013;42.664;23.242;2023-04-02T05:39:57;93222.38;;;9.02;60.17
61128;BME280;47013;42.664;23.242;2023-04-02T05:42:24;93220.03;;;9.24;58.44
61128;BME280;47013;42.664;23.242;2023-04-02T05:44:57;93213.31;;;9.32;59.56
61128;BME280;47013;42.664;23.242;2023-04-02T05:47:28;93221.47;;;9.52;57.36
61128;BME280;47013;42.664;23.242;2023-04-02T05:50:04;93218.06;;;9.48;56.96
61128;BME280;47013;42.664;23.242;2023-04-02T05:52:37;93220.19;;;9.37;56.20
61128;BME280;47013;42.664;23.242;2023-04-02T05:57:40;93217.31;;;9.67;56.45
61128;BME280;47013;42.664;23.242;2023-04-02T06:00:07;93223.13;;;9.86;56.03
61128;BME280;47013;42.664;23.242;2023-04-02T06:02:40;93229.59;;;9.92;54.93
61128;BME280;47013;42.664;23.242;2023-04-02T06:05:16;93225.34;;;9.91;54.76
61128;BME280;47013;42.664;23.242;2023-04-02T06:10:26;93226.81;;;9.95;53.97
61128;BME280;47013;42.664;23.242;2023-04-02T06:12:53;93227.91;;;9.98;54.74
61128;BME280;47013;42.664;23.242;2023-04-02T06:15:20;93229.00;;;10.00;54.78
61128;BME280;47013;42.664;23.242;2023-04-02T06:20:15;93227.53;;;10.36;54.35
61128;BME280;47013;42.664;23.242;2023-04-02T06:22:42;93221.97;;;10.59;52.52
61128;BME280;47013;42.664;23.242;2023-04-02T06:27:34;93221.31;;;10.87;51.81
61128;BME280;47013;42.664;23.242;2023-04-02T06:30:02;93230.13;;;11.08;52.18
61128;BME280;47013;42.664;23.242;2023-04-02T06:32:27;93232.06;;;11.23;50.48
61128;BME280;47013;42.664;23.242;2023-04-02T06:34:53;93226.50;;;10.82;50.37
61128;BME280;47013;42.664;23.242;2023-04-02T06:37:21;93228.06;;;10.63;51.68
61128;BME280;47013;42.664;23.242;2023-04-02T06:39:48;93222.19;;;10.32;51.36
61128;BME280;47013;42.664;23.242;2023-04-02T06:42:18;93231.69;;;10.40;52.17
61128;BME280;47013;42.664;23.242;2023-04-02T06:44:44;93239.09;;;10.72;51.92
61128;BME280;47013;42.664;23.242;2023-04-02T06:49:45;93233.53;;;10.96;51.81
61128;BME280;47013;42.664;23.242;2023-04-02T06:52:24;93232.47;;;11.06;50.46
61128;BME280;47013;42.664;23.242;2023-04-02T06:54:51;93246.47;;;11.04;50.23
61128;BME280;47013;42.664;23.242;2023-04-02T06:57:16;93248.44;;;11.20;50.41
61128;BME280;47013;42.664;23.242;2023-04-02T06:59:41;93257.13;;;11.44;49.40
61128;BME280;47013;42.664;23.242;2023-04-02T07:02:28;93249.50;;;11.39;49.65
61128;BME280;47013;42.664;23.242;2023-04-02T07:04:57;93246.78;;;11.39;50.00
61128;BME280;47013;42.664;23.242;2023-04-02T07:07:24;93255.53;;;11.30;50.69
61128;BME280;47013;42.664;23.242;2023-04-02T07:09:49;93257.56;;;10.93;50.63
61128;BME280;47013;42.664;23.242;2023-04-02T07:12:17;93253.03;;;11.07;51.13
61128;BME280;47013;42.664;23.242;2023-04-02T07:14:44;93263.84;;;10.90;50.46
61128;BME280;47013;42.664;23.242;2023-04-02T07:17:14;93257.00;;;11.02;52.30
61128;BME280;47013;42.664;23.242;2023-04-02T07:19:40;93260.31;;;11.10;51.58
61128;BME280;47013;42.664;23.242;2023-04-02T07:22:08;93270.47;;;11.06;50.99
61128;BME280;47013;42.664;23.242;2023-04-02T07:24:33;93277.53;;;10.67;51.21
61128;BME280;47013;42.664;23.242;2023-04-02T07:26:58;93273.69;;;10.84;51.42
61128;BME280;47013;42.664;23.242;2023-04-02T07:29:23;93269.44;;;11.00;51.67
61128;BME280;47013;42.664;23.242;2023-04-02T07:31:49;93266.72;;;11.16;50.80
61128;BME280;47013;42.664;23.242;2023-04-02T07:34:16;93273.88;;;11.10;50.67
61128;BME280;47013;42.664;23.242;2023-04-02T07:36:41;93272.25;;;11.12;51.16
61128;BME280;47013;42.664;23.242;2023-04-02T07:39:07;93280.13;;;11.39;51.83
61128;BME280;47013;42.664;23.242;2023-04-02T07:41:33;93278.53;;;11.71;51.08
61128;BME280;47013;42.664;23.242;2023-04-02T07:43:58;93277.66;;;11.90;49.63
61128;BME280;47013;42.664;23.242;2023-04-02T07:46:23;93279.13;;;12.07;51.33
61128;BME280;47013;42.664;23.242;2023-04-02T07:48:49;93281.31;;;12.13;50.46
61128;BME280;47013;42.664;23.242;2023-04-02T07:51:18;93279.91;;;12.21;50.45
61128;BME280;47013;42.664;23.242;2023-04-02T07:53:44;93280.88;;;12.68;49.14
61128;BME280;47013;42.664;23.242;2023-04-02T07:56:14;93277.78;;;12.28;47.50
61128;BME280;47013;42.664;23.242;2023-04-02T07:58:40;93278.72;;;12.63;49.01
61128;BME280;47013;42.664;23.242;2023-04-02T08:01:10;93276.31;;;12.91;47.26
61128;BME280;47013;42.664;23.242;2023-04-02T08:03:38;93281.06;;;13.12;46.48
61128;BME280;47013;42.664;23.242;2023-04-02T08:06:03;93284.13;;;13.27;47.97
61128;BME280;47013;42.664;23.242;2023-04-02T08:08:28;93287.41;;;13.35;46.90
61128;BME280;47013;42.664;23.242;2023-04-02T08:10:54;93292.84;;;13.35;46.44
61128;BME280;47013;42.664;23.242;2023-04-02T08:13:19;93290.13;;;13.22;46.20
61128;BME280;47013;42.664;23.242;2023-04-02T08:15:44;93290.31;;;13.15;46.42
61128;BME280;47013;42.664;23.242;2023-04-02T08:18:10;93292.84;;;12.96;46.35
61128;BME280;47013;42.664;23.242;2023-04-02T08:20:35;93290.13;;;12.84;46.82
61128;BME280;47013;42.664;23.242;2023-04-02T08:23:01;93287.63;;;12.77;47.29
61128;BME280;47013;42.664;23.242;2023-04-02T08:25:27;93284.56;;;12.75;47.66
61128;BME280;47013;42.664;23.242;2023-04-02T08:27:52;93288.81;;;12.76;46.85
61128;BME280;47013;42.664;23.242;2023-04-02T08:30:18;93293.72;;;12.93;47.37
61128;BME280;47013;42.664;23.242;2023-04-02T08:32:43;93299.38;;;12.99;48.38
61128;BME280;47013;42.664;23.242;2023-04-02T08:35:10;93300.25;;;13.09;47.10
61128;BME280;47013;42.664;23.242;2023-04-02T08:37:35;93297.84;;;13.36;46.50
61128;BME280;47013;42.664;23.242;2023-04-02T08:40:01;93296.19;;;13.51;45.97
61128;BME280;47013;42.664;23.242;2023-04-02T08:42:33;93295.03;;;13.74;44.45
61128;BME280;47013;42.664;23.242;2023-04-02T08:45:04;93304.19;;;13.80;44.44
61128;BME280;47013;42.664;23.242;2023-04-02T08:47:35;93308.97;;;13.76;43.40
61128;BME280;47013;42.664;23.242;2023-04-02T08:50:03;93310.72;;;13.83;44.26
61128;BME280;47013;42.664;23.242;2023-04-02T08:52:33;93303.22;;;14.09;42.55
61128;BME280;47013;42.664;23.242;2023-04-02T08:55:00;93311.44;;;14.18;43.00
61128;BME280;47013;42.664;23.242;2023-04-02T09:00:07;93312.75;;;13.92;42.00
61128;BME280;47013;42.664;23.242;2023-04-02T09:02:41;93305.63;;;14.07;42.97
61128;BME280;47013;42.664;23.242;2023-04-02T09:05:19;93298.63;;;14.28;42.13
61128;BME280;47013;42.664;23.242;2023-04-02T09:07:46;93299.47;;;14.37;43.60
61128;BME280;47013;42.664;23.242;2023-04-02T09:10:15;93297.81;;;14.62;41.23
61128;BME280;47013;42.664;23.242;2023-04-02T09:12:40;93292.00;;;14.82;39.29
61128;BME280;47013;42.664;23.242;2023-04-02T09:17:33;93294.72;;;14.82;41.29
61128;BME280;47013;42.664;23.242;2023-04-02T09:20:15;93295.56;;;14.69;41.26
61128;BME280;47013;42.664;23.242;2023-04-02T09:22:41;93293.75;;;14.66;41.94
61128;BME280;47013;42.664;23.242;2023-04-02T09:25:11;93303.72;;;14.91;42.15
61128;BME280;47013;42.664;23.242;2023-04-02T09:27:38;93298.88;;;14.95;40.81
61128;BME280;47013;42.664;23.242;2023-04-02T09:32:52;93289.56;;;15.15;40.69
61128;BME280;47013;42.664;23.242;2023-04-02T09:35:18;93292.00;;;15.22;39.50
61128;BME280;47013;42.664;23.242;2023-04-02T09:37:45;93279.16;;;15.31;41.02
61128;BME280;47013;42.664;23.242;2023-04-02T09:40:26;93296.91;;;15.27;39.58
61128;BME280;47013;42.664;23.242;2023-04-02T09:43:02;93277.53;;;15.03;39.40
61128;BME280;47013;42.664;23.242;2023-04-02T09:45:31;93288.59;;;15.40;38.99
61128;BME280;47013;42.664;23.242;2023-04-02T09:47:56;93276.22;;;15.66;40.00
61128;BME280;47013;42.664;23.242;2023-04-02T09:50:26;93275.63;;;15.13;38.06
61128;BME280;47013;42.664;23.242;2023-04-02T09:52:52;93277.47;;;14.54;38.65
61128;BME280;47013;42.664;23.242;2023-04-02T09:55:19;93282.75;;;14.79;39.21
61128;BME280;47013;42.664;23.242;2023-04-02T09:57:46;93274.03;;;14.62;39.21
61128;BME280;47013;42.664;23.242;2023-04-02T10:02:37;93271.22;;;14.75;39.22
61128;BME280;47013;42.664;23.242;2023-04-02T10:05:03;93265.97;;;14.90;38.44
61128;BME280;47013;42.664;23.242;2023-04-02T10:07:40;93271.44;;;14.59;39.40
61128;BME280;47013;42.664;23.242;2023-04-02T10:12:46;93271.34;;;15.61;37.79
61128;BME280;47013;42.664;23.242;2023-04-02T10:15:14;93257.97;;;15.54;36.92
61128;BME280;47013;42.664;23.242;2023-04-02T10:17:41;93253.31;;;15.82;37.97
61128;BME280;47013;42.664;23.242;2023-04-02T10:20:13;93254.66;;;15.96;36.36
61128;BME280;47013;42.664;23.242;2023-04-02T10:22:41;93250.69;;;16.24;38.42
61128;BME280;47013;42.664;23.242;2023-04-02T10:25:13;93253.53;;;16.48;35.83
61128;BME280;47013;42.664;23.242;2023-04-02T10:41:10;93257.34;;;17.02;33.60
61128;BME280;47013;42.664;23.242;2023-04-02T10:56:29;93251.78;;;15.90;39.16
61128;BME280;47013;42.664;23.242;2023-04-02T10:58:59;93246.47;;;15.86;39.68
61128;BME280;47013;42.664;23.242;2023-04-02T11:01:27;93241.00;;;16.05;40.41
61128;BME280;47013;42.664;23.242;2023-04-02T11:04:04;93245.22;;;15.60;39.89
61128;BME280;47013;42.664;23.242;2023-04-02T11:06:34;93238.91;;;15.23;41.07
61128;BME280;47013;42.664;23.242;2023-04-02T11:09:03;93251.16;;;15.00;42.15
61128;BME280;47013;42.664;23.242;2023-04-02T11:11:31;93250.19;;;14.94;42.29
61128;BME280;47013;42.664;23.242;2023-04-02T11:16:28;93254.25;;;14.80;41.62
61128;BME280;47013;42.664;23.242;2023-04-02T11:21:38;93255.47;;;14.79;41.85
61128;BME280;47013;42.664;23.242;2023-04-02T11:24:05;93258.91;;;14.70;43.05
61128;BME280;47013;42.664;23.242;2023-04-02T11:29:07;93250.31;;;14.81;40.47
61128;BME280;47013;42.664;23.242;2023-04-02T11:31:34;93248.84;;;14.89;41.76
61128;BME280;47013;42.664;23.242;2023-04-02T11:34:00;93244.59;;;14.88;40.35
61128;BME280;47013;42.664;23.242;2023-04-02T11:39:09;93234.97;;;15.15;41.50
61128;BME280;47013;42.664;23.242;2023-04-02T11:44:22;93240.47;;;15.33;40.30
61128;BME280;47013;42.664;23.242;2023-04-02T11:46:48;93229.97;;;15.31;39.89
61128;BME280;47013;42.664;23.242;2023-04-02T11:49:33;93231.81;;;15.25;39.98
61128;BME280;47013;42.664;23.242;2023-04-02T11:52:03;93224.69;;;15.28;39.65
61128;BME280;47013;42.664;23.242;2023-04-02T11:54:35;93225.88;;;15.27;39.75
61128;BME280;47013;42.664;23.242;2023-04-02T11:57:09;93225.72;;;15.30;39.35
61128;BME280;47013;42.664;23.242;2023-04-02T12:02:15;93226.78;;;15.33;39.89
61128;BME280;47013;42.664;23.242;2023-04-02T12:10:26;93237.31;;;14.85;40.42
61128;BME280;47013;42.664;23.242;2023-04-02T12:12:52;93225.41;;;14.70;40.68
61128;BME280;47013;42.664;23.242;2023-04-02T12:17:52;93235.69;;;14.66;41.61
61128;BME280;47013;42.664;23.242;2023-04-02T12:20:26;93229.22;;;14.72;40.13
61128;BME280;47013;42.664;23.242;2023-04-02T12:22:54;93232.59;;;14.86;40.34
61128;BME280;47013;42.664;23.242;2023-04-02T12:28:33;93216.53;;;15.83;38.24
61128;BME280;47013;42.664;23.242;2023-04-02T12:30:34;93223.97;;;16.01;37.22
61128;BME280;47013;42.664;23.242;2023-04-02T12:35:41;93213.66;;;16.65;36.26
61128;BME280;47013;42.664;23.242;2023-04-02T12:38:17;93210.59;;;17.15;35.97
61128;BME280;47013;42.664;23.242;2023-04-02T12:40:50;93213.56;;;17.26;34.97
61128;BME280;47013;42.664;23.242;2023-04-02T12:43:22;93214.50;;;17.23;34.31
61128;BME280;47013;42.664;23.242;2023-04-02T12:45:50;93208.28;;;17.46;34.72
61128;BME280;47013;42.664;23.242;2023-04-02T12:48:15;93209.66;;;17.42;33.84
61128;BME280;47013;42.664;23.242;2023-04-02T12:50:41;93200.56;;;17.12;33.99
61128;BME280;47013;42.664;23.242;2023-04-02T12:53:11;93193.56;;;17.10;34.64
61128;BME280;47013;42.664;23.242;2023-04-02T12:55:44;93198.66;;;17.27;34.68
61128;BME280;47013;42.664;23.242;2023-04-02T12:58:23;93198.78;;;17.32;33.90
61128;BME280;47013;42.664;23.242;2023-04-02T13:00:49;93195.84;;;17.12;34.82
61128;BME280;47013;42.664;23.242;2023-04-02T13:05:43;93193.91;;;16.70;35.23
61128;BME280;47013;42.664;23.242;2023-04-02T13:08:21;93189.88;;;16.90;34.35
61128;BME280;47013;42.664;23.242;2023-04-02T13:10:51;93195.78;;;16.55;34.71
61128;BME280;47013;42.664;23.242;2023-04-02T13:13:17;93194.19;;;16.63;34.80
61128;BME280;47013;42.664;23.242;2023-04-02T13:15:47;93192.97;;;16.73;35.12
61128;BME280;47013;42.664;23.242;2023-04-02T13:18:23;93197.38;;;16.80;34.23
61128;BME280;47013;42.664;23.242;2023-04-02T13:20:56;93185.19;;;16.81;33.99
61128;BME280;47013;42.664;23.242;2023-04-02T13:25:48;93198.91;;;16.63;35.33
61128;BME280;47013;42.664;23.242;2023-04-02T13:28:13;93195.97;;;16.42;34.67
61128;BME280;47013;42.664;23.242;2023-04-02T13:30:38;93189.00;;;16.23;35.12
61128;BME280;47013;42.664;23.242;2023-04-02T13:33:04;93192.97;;;16.13;35.44
61128;BME280;47013;42.664;23.242;2023-04-02T13:35:29;93192.84;;;16.07;35.83
61128;BME280;47013;42.664;23.242;2023-04-02T13:37:54;93186.91;;;16.00;35.44
61128;BME280;47013;42.664;23.242;2023-04-02T13:40:20;93190.28;;;15.85;35.04
61128;BME280;47013;42.664;23.242;2023-04-02T13:42:45;93175.25;;;15.72;35.30
61128;BME280;47013;42.664;23.242;2023-04-02T13:45:32;93184.06;;;15.67;34.82
61128;BME280;47013;42.664;23.242;2023-04-02T13:47:57;93189.38;;;15.61;34.70
61128;BME280;47013;42.664;23.242;2023-04-02T13:50:25;93190.56;;;15.60;34.96
61128;BME280;47013;42.664;23.242;2023-04-02T13:52:51;93188.28;;;15.58;34.94
61128;BME280;47013;42.664;23.242;2023-04-02T13:55:16;93187.22;;;15.56;34.71
61128;BME280;47013;42.664;23.242;2023-04-02T13:57:43;93188.72;;;15.57;35.12
61128;BME280;47013;42.664;23.242;2023-04-02T14:00:09;93185.53;;;15.58;34.75
61128;BME280;47013;42.664;23.242;2023-04-02T14:02:36;93186.75;;;15.57;35.37
61128;BME280;47013;42.664;23.242;2023-04-02T14:12:34;93181.75;;;15.38;35.94
61128;BME280;47013;42.664;23.242;2023-04-02T14:15:16;93176.72;;;15.45;36.36
61128;BME280;47013;42.664;23.242;2023-04-02T14:25:16;93179.34;;;15.67;35.59
61128;BME280;47013;42.664;23.242;2023-04-02T14:32:44;93175.22;;;15.53;35.16
61128;BME280;47013;42.664;23.242;2023-04-02T14:40:39;93165.53;;;15.52;35.52
61128;BME280;47013;42.664;23.242;2023-04-02T14:43:21;93167.03;;;15.44;35.25
61128;BME280;47013;42.664;23.242;2023-04-02T14:48:24;93163.25;;;15.51;36.40
61128;BME280;47013;42.664;23.242;2023-04-02T14:50:52;93167.63;;;15.48;35.95
61128;BME280;47013;42.664;23.242;2023-04-02T14:53:24;93171.25;;;15.36;35.73
61128;BME280;47013;42.664;23.242;2023-04-02T14:55:51;93166.56;;;15.27;35.77
61128;BME280;47013;42.664;23.242;2023-04-02T14:58:59;93174.16;;;15.32;35.08
61128;BME280;47013;42.664;23.242;2023-04-02T15:01:08;93175.53;;;15.46;35.13
61128;BME280;47013;42.664;23.242;2023-04-02T15:04:39;93182.50;;;15.56;35.80
61128;BME280;47013;42.664;23.242;2023-04-02T15:06:42;93183.91;;;15.61;35.51
61128;BME280;47013;42.664;23.242;2023-04-02T15:09:10;93181.00;;;15.55;34.79
61128;BME280;47013;42.664;23.242;2023-04-02T15:11:40;93184.97;;;15.63;34.05
61128;BME280;47013;42.664;23.242;2023-04-02T15:14:18;93185.13;;;15.69;34.82
61128;BME280;47013;42.664;23.242;2023-04-02T15:16:45;93183.44;;;15.72;34.01
61128;BME280;47013;42.664;23.242;2023-04-02T15:19:14;93189.69;;;15.63;34.59
61128;BME280;47013;42.664;23.242;2023-04-02T15:29:31;93188.41;;;15.46;34.94
61128;BME280;47013;42.664;23.242;2023-04-02T15:32:07;93193.56;;;15.34;34.78
61128;BME280;47013;42.664;23.242;2023-04-02T15:34:43;93196.16;;;15.29;35.05
61128;BME280;47013;42.664;23.242;2023-04-02T15:42:27;93199.91;;;15.13;35.67
61128;BME280;47013;42.664;23.242;2023-04-02T15:44:55;93191.84;;;15.10;35.92
61128;BME280;47013;42.664;23.242;2023-04-02T15:52:32;93205.16;;;14.89;36.67
61128;BME280;47013;42.664;23.242;2023-04-02T15:55:02;93209.69;;;14.83;35.77
61128;BME280;47013;42.664;23.242;2023-04-02T15:57:39;93208.16;;;14.82;36.29
61128;BME280;47013;42.664;23.242;2023-04-02T16:02:48;93206.59;;;14.41;37.34
61128;BME280;47013;42.664;23.242;2023-04-02T16:12:58;93219.38;;;14.22;38.92
61128;BME280;47013;42.664;23.242;2023-04-02T16:15:27;93223.41;;;14.08;39.14
61128;BME280;47013;42.664;23.242;2023-04-02T16:18:01;93228.09;;;14.08;41.23
61128;BME280;47013;42.664;23.242;2023-04-02T16:20:30;93222.28;;;14.06;41.57
61128;BME280;47013;42.664;23.242;2023-04-02T16:23:01;93215.91;;;14.00;42.08
61128;BME280;47013;42.664;23.242;2023-04-02T16:25:30;93223.91;;;13.94;42.69
61128;BME280;47013;42.664;23.242;2023-04-02T16:28:22;93222.44;;;13.80;40.63
61128;BME280;47013;42.664;23.242;2023-04-02T16:30:45;93221.91;;;13.73;40.46
61128;BME280;47013;42.664;23.242;2023-04-02T16:43:29;93240.34;;;13.34;43.41
61128;BME280;47013;42.664;23.242;2023-04-02T16:46:15;93233.41;;;13.20;43.72
61128;BME280;47013;42.664;23.242;2023-04-02T16:54:01;93241.59;;;12.82;44.87
61128;BME280;47013;42.664;23.242;2023-04-02T16:57:08;93244.00;;;12.67;45.09